SAS1780 EKVG-EKYT
Flight info
| Callsign | SAS1780 |
|---|---|
| Flight time | 1h 36m |
| Altitude | 39000 |
| Route | M078F390 ODEVA1A ODEVA DCT GUNPA/N0440F390 DCT AAL DCT |
| Aircraft | B738/M-SDE2E3FGHIRWXY/LB1 |
Departure
| Time | 2026-04-28 17:27 |
|---|---|
| Airport | Vágar Airport (EKVG) |
Arrival
| Time | 2026-04-28 19:04 |
|---|---|
| Airport | Aalborg Airport (EKYT) |
| Time | Latitude | Longitude | Altitude | Speed | Heading |
|---|---|---|---|---|---|
| 2026-04-28 16:33 | 62.06683 | -7.27948 | 278 ft | 0 kts | 29° |
| 2026-04-28 17:06 | 62.06643 | -7.27948 | 278 ft | 4 kts | 302° |
| 2026-04-28 17:07 | 62.06632 | -7.27897 | 278 ft | 4 kts | 294° |
| 2026-04-28 17:07 | 62.06628 | -7.27881 | 278 ft | 0 kts | 297° |
| 2026-04-28 17:23 | 62.06641 | -7.27943 | 278 ft | 7 kts | 290° |
| 2026-04-28 17:23 | 62.06635 | -7.28050 | 278 ft | 8 kts | 238° |
| 2026-04-28 17:23 | 62.06581 | -7.28089 | 277 ft | 10 kts | 189° |
| 2026-04-28 17:23 | 62.06520 | -7.28129 | 279 ft | 8 kts | 201° |
| 2026-04-28 17:24 | 62.06489 | -7.28206 | 280 ft | 7 kts | 264° |
| 2026-04-28 17:24 | 62.06511 | -7.28324 | 279 ft | 11 kts | 297° |
| 2026-04-28 17:24 | 62.06551 | -7.28485 | 281 ft | 14 kts | 298° |
| 2026-04-28 17:24 | 62.06601 | -7.28684 | 275 ft | 17 kts | 298° |
| 2026-04-28 17:25 | 62.06661 | -7.28918 | 271 ft | 18 kts | 298° |
| 2026-04-28 17:25 | 62.06712 | -7.29194 | 268 ft | 7 kts | 302° |
| 2026-04-28 17:25 | 62.06721 | -7.29178 | 268 ft | 2 kts | 87° |
| 2026-04-28 17:26 | 62.06715 | -7.29158 | 268 ft | 0 kts | 117° |
| 2026-04-28 17:26 | 62.06698 | -7.29087 | 269 ft | 24 kts | 117° |
| 2026-04-28 17:27 | 62.06504 | -7.28309 | 279 ft | 94 kts | 118° |
| 2026-04-28 17:27 | 62.06099 | -7.26692 | 329 ft | 144 kts | 119° |
| 2026-04-28 17:27 | 62.05666 | -7.24825 | 1010 ft | 142 kts | 120° |
| 2026-04-28 17:27 | 62.05190 | -7.22822 | 1528 ft | 159 kts | 122° |
| 2026-04-28 17:28 | 62.04628 | -7.20652 | 2189 ft | 174 kts | 122° |
| 2026-04-28 17:28 | 62.03343 | -7.15653 | 3522 ft | 210 kts | 125° |
| 2026-04-28 17:28 | 62.02627 | -7.12805 | 4254 ft | 226 kts | 124° |
| 2026-04-28 17:29 | 62.01862 | -7.09734 | 5031 ft | 242 kts | 123° |
| 2026-04-28 17:29 | 62.01048 | -7.06458 | 5793 ft | 259 kts | 123° |
| 2026-04-28 17:29 | 62.00199 | -7.02919 | 6536 ft | 277 kts | 121° |
| 2026-04-28 17:30 | 61.98490 | -6.95155 | 8255 ft | 300 kts | 112° |
| 2026-04-28 17:30 | 61.98353 | -6.86134 | 10189 ft | 313 kts | 87° |
| 2026-04-28 17:30 | 61.98508 | -6.81465 | 11008 ft | 324 kts | 87° |
| 2026-04-28 17:31 | 61.98668 | -6.76554 | 11554 ft | 341 kts | 87° |
| 2026-04-28 17:31 | 61.98999 | -6.66055 | 12834 ft | 365 kts | 87° |
| 2026-04-28 17:32 | 61.99316 | -6.55125 | 14519 ft | 374 kts | 89° |
| 2026-04-28 17:32 | 61.99009 | -6.49629 | 15349 ft | 376 kts | 103° |
| 2026-04-28 17:32 | 61.98416 | -6.44172 | 16149 ft | 381 kts | 106° |
| 2026-04-28 17:32 | 61.97706 | -6.38719 | 16926 ft | 385 kts | 108° |
| 2026-04-28 17:33 | 61.96947 | -6.33216 | 17712 ft | 389 kts | 108° |
| 2026-04-28 17:33 | 61.96205 | -6.27644 | 18478 ft | 394 kts | 107° |
| 2026-04-28 17:33 | 61.95493 | -6.21986 | 19196 ft | 399 kts | 106° |
| 2026-04-28 17:33 | 61.95026 | -6.18190 | 19677 ft | 402 kts | 106° |
| 2026-04-28 17:34 | 61.94066 | -6.10455 | 20628 ft | 407 kts | 106° |
| 2026-04-28 17:34 | 61.93321 | -6.04626 | 21308 ft | 411 kts | 107° |
| 2026-04-28 17:34 | 61.92556 | -5.98747 | 21979 ft | 415 kts | 107° |
| 2026-04-28 17:34 | 61.91785 | -5.92819 | 22613 ft | 419 kts | 106° |
| 2026-04-28 17:35 | 61.91010 | -5.86832 | 23234 ft | 422 kts | 106° |
| 2026-04-28 17:35 | 61.90231 | -5.80795 | 23819 ft | 425 kts | 106° |
| 2026-04-28 17:35 | 61.89448 | -5.74765 | 24601 ft | 423 kts | 106° |
| 2026-04-28 17:35 | 61.88660 | -5.68744 | 25217 ft | 425 kts | 106° |
| 2026-04-28 17:36 | 61.87863 | -5.62688 | 25754 ft | 428 kts | 106° |
| 2026-04-28 17:36 | 61.87067 | -5.56670 | 26279 ft | 431 kts | 106° |
| 2026-04-28 17:36 | 61.86255 | -5.50539 | 26785 ft | 434 kts | 106° |
| 2026-04-28 17:36 | 61.85433 | -5.44344 | 27271 ft | 437 kts | 106° |
| 2026-04-28 17:37 | 61.84603 | -5.38124 | 27720 ft | 440 kts | 106° |
| 2026-04-28 17:37 | 61.83764 | -5.31856 | 28176 ft | 443 kts | 106° |
| 2026-04-28 17:37 | 61.82918 | -5.25569 | 28653 ft | 444 kts | 106° |
| 2026-04-28 17:37 | 61.82068 | -5.19276 | 29174 ft | 444 kts | 106° |
| 2026-04-28 17:38 | 61.81217 | -5.13003 | 29722 ft | 443 kts | 106° |
| 2026-04-28 17:38 | 61.80367 | -5.06752 | 30261 ft | 442 kts | 106° |
| 2026-04-28 17:38 | 61.79516 | -5.00522 | 30787 ft | 441 kts | 106° |
| 2026-04-28 17:38 | 61.78664 | -4.94308 | 31288 ft | 440 kts | 106° |
| 2026-04-28 17:39 | 61.77811 | -4.88115 | 31795 ft | 439 kts | 106° |
| 2026-04-28 17:39 | 61.76955 | -4.81917 | 32274 ft | 438 kts | 106° |
| 2026-04-28 17:39 | 61.75242 | -4.69594 | 33190 ft | 437 kts | 106° |
| 2026-04-28 17:40 | 61.74382 | -4.63445 | 33629 ft | 437 kts | 106° |
| 2026-04-28 17:40 | 61.73522 | -4.57307 | 34067 ft | 436 kts | 106° |
| 2026-04-28 17:40 | 61.72658 | -4.51178 | 34483 ft | 436 kts | 106° |
| 2026-04-28 17:40 | 61.71793 | -4.45058 | 34897 ft | 435 kts | 106° |
| 2026-04-28 17:41 | 61.70926 | -4.38950 | 35306 ft | 434 kts | 106° |
| 2026-04-28 17:41 | 61.70058 | -4.32849 | 35714 ft | 434 kts | 106° |
| 2026-04-28 17:41 | 61.69188 | -4.26760 | 36102 ft | 433 kts | 106° |
| 2026-04-28 17:41 | 61.68327 | -4.20765 | 36476 ft | 432 kts | 107° |
| 2026-04-28 17:42 | 61.67443 | -4.14627 | 36838 ft | 432 kts | 107° |
| 2026-04-28 17:42 | 61.66862 | -4.10604 | 37084 ft | 432 kts | 107° |
| 2026-04-28 17:42 | 61.65706 | -4.02615 | 37607 ft | 429 kts | 107° |
| 2026-04-28 17:42 | 61.64834 | -3.96618 | 38006 ft | 427 kts | 107° |
| 2026-04-28 17:43 | 61.63966 | -3.90670 | 38413 ft | 424 kts | 107° |
| 2026-04-28 17:43 | 61.63096 | -3.84742 | 38764 ft | 423 kts | 107° |
| 2026-04-28 17:43 | 61.62228 | -3.78837 | 39086 ft | 422 kts | 107° |
| 2026-04-28 17:43 | 61.61355 | -3.72924 | 39278 ft | 425 kts | 107° |
| 2026-04-28 17:44 | 61.60474 | -3.66966 | 39401 ft | 430 kts | 107° |
| 2026-04-28 17:44 | 61.58663 | -3.54792 | 39419 ft | 442 kts | 107° |
| 2026-04-28 17:45 | 61.56798 | -3.42363 | 39427 ft | 450 kts | 107° |
| 2026-04-28 17:45 | 61.54892 | -3.29744 | 39432 ft | 455 kts | 107° |
| 2026-04-28 17:46 | 61.52976 | -3.17157 | 39439 ft | 448 kts | 106° |
| 2026-04-28 17:46 | 61.51089 | -3.04847 | 39455 ft | 445 kts | 106° |
| 2026-04-28 17:47 | 61.49188 | -2.92524 | 39458 ft | 444 kts | 106° |
| 2026-04-28 17:47 | 61.47277 | -2.80234 | 39458 ft | 444 kts | 106° |
| 2026-04-28 17:48 | 61.45353 | -2.67937 | 39471 ft | 445 kts | 106° |
| 2026-04-28 17:48 | 61.43415 | -2.55645 | 39460 ft | 446 kts | 106° |
| 2026-04-28 17:49 | 61.41463 | -2.43347 | 39466 ft | 446 kts | 106° |
| 2026-04-28 17:49 | 61.39500 | -2.31067 | 39468 ft | 446 kts | 106° |
| 2026-04-28 17:50 | 61.37526 | -2.18799 | 39470 ft | 446 kts | 106° |
| 2026-04-28 17:50 | 61.35538 | -2.06532 | 39477 ft | 446 kts | 106° |
| 2026-04-28 17:51 | 61.33539 | -1.94280 | 39478 ft | 446 kts | 106° |
| 2026-04-28 17:51 | 61.31528 | -1.82032 | 39479 ft | 447 kts | 106° |
| 2026-04-28 17:52 | 61.29848 | -1.71865 | 39486 ft | 447 kts | 106° |
| 2026-04-28 17:52 | 61.26793 | -1.53527 | 39479 ft | 446 kts | 106° |
| 2026-04-28 17:53 | 61.24762 | -1.41435 | 39479 ft | 446 kts | 106° |
| 2026-04-28 17:53 | 61.22709 | -1.29290 | 39480 ft | 445 kts | 106° |
| 2026-04-28 17:54 | 61.20648 | -1.17182 | 39491 ft | 445 kts | 107° |
| 2026-04-28 17:54 | 61.18581 | -1.05113 | 39488 ft | 444 kts | 107° |
| 2026-04-28 17:55 | 61.16501 | -0.93047 | 39492 ft | 444 kts | 107° |
| 2026-04-28 17:55 | 61.14410 | -0.81001 | 39489 ft | 444 kts | 107° |
| 2026-04-28 17:56 | 61.12308 | -0.68967 | 39489 ft | 444 kts | 107° |
| 2026-04-28 17:56 | 61.10197 | -0.56955 | 39492 ft | 444 kts | 107° |
| 2026-04-28 17:57 | 61.08077 | -0.44971 | 39489 ft | 444 kts | 107° |
| 2026-04-28 17:57 | 61.05947 | -0.33004 | 39489 ft | 444 kts | 107° |
| 2026-04-28 17:58 | 61.03804 | -0.21041 | 39492 ft | 444 kts | 107° |
| 2026-04-28 17:58 | 61.01649 | -0.09108 | 39493 ft | 444 kts | 107° |
| 2026-04-28 17:59 | 60.99219 | 0.02586 | 39502 ft | 447 kts | 118° |
| 2026-04-28 17:59 | 60.95993 | 0.13560 | 39502 ft | 449 kts | 117° |
| 2026-04-28 18:00 | 60.92710 | 0.24462 | 39505 ft | 453 kts | 117° |
| 2026-04-28 18:00 | 60.89396 | 0.35505 | 39503 ft | 453 kts | 117° |
| 2026-04-28 18:01 | 60.86083 | 0.46512 | 39499 ft | 453 kts | 117° |
| 2026-04-28 18:01 | 60.82760 | 0.57463 | 39498 ft | 452 kts | 117° |
| 2026-04-28 18:02 | 60.79437 | 0.68374 | 39500 ft | 451 kts | 117° |
| 2026-04-28 18:02 | 60.76107 | 0.79264 | 39498 ft | 451 kts | 117° |
| 2026-04-28 18:03 | 60.72765 | 0.90133 | 39499 ft | 452 kts | 117° |
| 2026-04-28 18:03 | 60.69409 | 1.00998 | 39499 ft | 452 kts | 117° |
| 2026-04-28 18:04 | 60.66038 | 1.11863 | 39503 ft | 452 kts | 117° |
| 2026-04-28 18:04 | 60.62662 | 1.22692 | 39498 ft | 452 kts | 117° |
| 2026-04-28 18:05 | 60.59851 | 1.31667 | 39499 ft | 452 kts | 117° |
| 2026-04-28 18:05 | 60.55889 | 1.44264 | 39505 ft | 452 kts | 118° |
| 2026-04-28 18:06 | 60.52503 | 1.54970 | 39504 ft | 449 kts | 118° |
| 2026-04-28 18:06 | 60.49123 | 1.65613 | 39508 ft | 448 kts | 118° |
| 2026-04-28 18:07 | 60.45740 | 1.76218 | 39500 ft | 448 kts | 118° |
| 2026-04-28 18:07 | 60.42367 | 1.86740 | 39498 ft | 448 kts | 118° |
| 2026-04-28 18:08 | 60.38967 | 1.97298 | 39498 ft | 448 kts | 118° |
| 2026-04-28 18:08 | 60.35557 | 2.07841 | 39502 ft | 448 kts | 117° |
| 2026-04-28 18:09 | 60.32141 | 2.18355 | 39513 ft | 448 kts | 117° |
| 2026-04-28 18:09 | 60.28714 | 2.28853 | 39516 ft | 448 kts | 118° |
| 2026-04-28 18:10 | 60.25277 | 2.39336 | 39516 ft | 449 kts | 118° |
| 2026-04-28 18:10 | 60.21825 | 2.49816 | 39517 ft | 449 kts | 118° |
| 2026-04-28 18:11 | 60.18360 | 2.60291 | 39517 ft | 450 kts | 118° |
| 2026-04-28 18:11 | 60.14883 | 2.70751 | 39517 ft | 450 kts | 118° |
| 2026-04-28 18:12 | 60.11393 | 2.81208 | 39518 ft | 451 kts | 118° |
| 2026-04-28 18:12 | 60.07912 | 2.91589 | 39517 ft | 452 kts | 118° |
| 2026-04-28 18:13 | 60.04399 | 3.02017 | 39517 ft | 452 kts | 118° |
| 2026-04-28 18:13 | 60.00879 | 3.12422 | 39517 ft | 452 kts | 118° |
| 2026-04-28 18:14 | 59.97349 | 3.22810 | 39519 ft | 452 kts | 118° |
| 2026-04-28 18:14 | 59.93815 | 3.33159 | 39517 ft | 450 kts | 118° |
| 2026-04-28 18:15 | 59.90284 | 3.43459 | 39517 ft | 450 kts | 118° |
| 2026-04-28 18:15 | 59.86750 | 3.53724 | 39517 ft | 449 kts | 118° |
| 2026-04-28 18:16 | 59.83202 | 3.63982 | 39518 ft | 450 kts | 118° |
| 2026-04-28 18:16 | 59.79639 | 3.74239 | 39513 ft | 451 kts | 118° |
| 2026-04-28 18:17 | 59.76063 | 3.84489 | 39510 ft | 452 kts | 118° |
| 2026-04-28 18:17 | 59.72469 | 3.94744 | 39510 ft | 453 kts | 118° |
| 2026-04-28 18:18 | 59.68866 | 4.04981 | 39502 ft | 453 kts | 118° |
| 2026-04-28 18:18 | 59.65863 | 4.13477 | 39499 ft | 453 kts | 118° |
| 2026-04-28 18:19 | 59.61641 | 4.25372 | 39498 ft | 452 kts | 118° |
| 2026-04-28 18:19 | 59.58026 | 4.35510 | 39498 ft | 451 kts | 118° |
| 2026-04-28 18:20 | 59.54407 | 4.45616 | 39498 ft | 451 kts | 118° |
| 2026-04-28 18:20 | 59.50801 | 4.55640 | 39502 ft | 451 kts | 119° |
| 2026-04-28 18:21 | 59.47164 | 4.65710 | 39498 ft | 451 kts | 119° |
| 2026-04-28 18:21 | 59.43526 | 4.75738 | 39498 ft | 450 kts | 119° |
| 2026-04-28 18:22 | 59.39878 | 4.85752 | 39499 ft | 450 kts | 119° |
| 2026-04-28 18:22 | 59.36220 | 4.95750 | 39498 ft | 451 kts | 119° |
| 2026-04-28 18:23 | 59.32559 | 5.05716 | 39498 ft | 451 kts | 119° |
| 2026-04-28 18:23 | 59.28907 | 5.15611 | 39500 ft | 451 kts | 119° |
| 2026-04-28 18:24 | 59.25828 | 5.23923 | 39499 ft | 450 kts | 119° |
| 2026-04-28 18:24 | 59.21524 | 5.35498 | 39501 ft | 451 kts | 120° |
| 2026-04-28 18:25 | 59.17828 | 5.45387 | 39502 ft | 451 kts | 120° |
| 2026-04-28 18:26 | 59.12298 | 5.60109 | 39498 ft | 450 kts | 120° |
| 2026-04-28 18:26 | 59.08593 | 5.69922 | 39486 ft | 449 kts | 120° |
| 2026-04-28 18:27 | 59.04885 | 5.79703 | 39491 ft | 449 kts | 120° |
| 2026-04-28 18:27 | 59.01167 | 5.89470 | 39490 ft | 450 kts | 120° |
| 2026-04-28 18:28 | 58.97441 | 5.99215 | 39491 ft | 450 kts | 120° |
| 2026-04-28 18:28 | 58.93705 | 6.08947 | 39494 ft | 450 kts | 120° |
| 2026-04-28 18:29 | 58.89956 | 6.18673 | 39497 ft | 451 kts | 120° |
| 2026-04-28 18:29 | 58.86225 | 6.28313 | 39502 ft | 451 kts | 120° |
| 2026-04-28 18:30 | 58.82460 | 6.38001 | 39537 ft | 451 kts | 121° |
| 2026-04-28 18:30 | 58.78684 | 6.47677 | 39494 ft | 450 kts | 121° |
| 2026-04-28 18:31 | 58.74918 | 6.57286 | 39488 ft | 449 kts | 121° |
| 2026-04-28 18:31 | 58.71146 | 6.66879 | 39480 ft | 450 kts | 121° |
| 2026-04-28 18:32 | 58.67360 | 6.76462 | 39474 ft | 450 kts | 121° |
| 2026-04-28 18:32 | 58.63564 | 6.86031 | 39468 ft | 451 kts | 121° |
| 2026-04-28 18:33 | 58.59755 | 6.95597 | 39457 ft | 452 kts | 121° |
| 2026-04-28 18:33 | 58.55929 | 7.05167 | 39453 ft | 452 kts | 121° |
| 2026-04-28 18:34 | 58.52742 | 7.13106 | 39451 ft | 452 kts | 121° |
| 2026-04-28 18:34 | 58.48897 | 7.22654 | 39447 ft | 453 kts | 121° |
| 2026-04-28 18:35 | 58.45045 | 7.32177 | 39439 ft | 453 kts | 121° |
| 2026-04-28 18:35 | 58.41182 | 7.41691 | 39435 ft | 454 kts | 121° |
| 2026-04-28 18:35 | 58.39243 | 7.46454 | 39293 ft | 457 kts | 121° |
| 2026-04-28 18:36 | 58.37295 | 7.51228 | 39051 ft | 454 kts | 121° |
| 2026-04-28 18:36 | 58.35365 | 7.55934 | 38806 ft | 447 kts | 121° |
| 2026-04-28 18:36 | 58.33457 | 7.60583 | 38350 ft | 445 kts | 121° |
| 2026-04-28 18:36 | 58.31553 | 7.65227 | 37855 ft | 444 kts | 121° |
| 2026-04-28 18:37 | 58.29652 | 7.69861 | 37372 ft | 445 kts | 121° |
| 2026-04-28 18:37 | 58.27746 | 7.74491 | 36860 ft | 445 kts | 120° |
| 2026-04-28 18:37 | 58.25835 | 7.79115 | 36361 ft | 444 kts | 120° |
| 2026-04-28 18:37 | 58.23923 | 7.83731 | 35821 ft | 444 kts | 120° |
| 2026-04-28 18:38 | 58.22019 | 7.88319 | 35283 ft | 442 kts | 120° |
| 2026-04-28 18:38 | 58.20113 | 7.92906 | 34717 ft | 441 kts | 119° |
| 2026-04-28 18:38 | 58.18217 | 7.97465 | 34165 ft | 440 kts | 118° |
| 2026-04-28 18:38 | 58.16321 | 8.02013 | 33616 ft | 439 kts | 118° |
| 2026-04-28 18:39 | 58.14428 | 8.06544 | 33067 ft | 437 kts | 118° |
| 2026-04-28 18:39 | 58.12541 | 8.11052 | 32521 ft | 436 kts | 118° |
| 2026-04-28 18:39 | 58.10658 | 8.15540 | 31976 ft | 434 kts | 118° |
| 2026-04-28 18:39 | 58.08785 | 8.19998 | 31434 ft | 433 kts | 118° |
| 2026-04-28 18:40 | 58.06914 | 8.24442 | 30879 ft | 431 kts | 118° |
| 2026-04-28 18:40 | 58.05050 | 8.28862 | 30330 ft | 429 kts | 118° |
| 2026-04-28 18:40 | 58.03216 | 8.33202 | 29789 ft | 427 kts | 118° |
| 2026-04-28 18:40 | 58.01364 | 8.37579 | 29240 ft | 429 kts | 118° |
| 2026-04-28 18:41 | 57.99463 | 8.42086 | 28684 ft | 437 kts | 119° |
| 2026-04-28 18:41 | 57.97561 | 8.46573 | 28136 ft | 438 kts | 120° |
| 2026-04-28 18:41 | 57.95655 | 8.51032 | 27593 ft | 436 kts | 120° |
| 2026-04-28 18:41 | 57.93753 | 8.55468 | 27037 ft | 435 kts | 120° |
| 2026-04-28 18:42 | 57.91860 | 8.59893 | 26487 ft | 433 kts | 120° |
| 2026-04-28 18:42 | 57.89978 | 8.64296 | 25937 ft | 431 kts | 121° |
| 2026-04-28 18:42 | 57.88126 | 8.68621 | 25395 ft | 429 kts | 121° |
| 2026-04-28 18:42 | 57.86256 | 8.72977 | 24845 ft | 427 kts | 121° |
| 2026-04-28 18:43 | 57.84365 | 8.77368 | 24284 ft | 426 kts | 121° |
| 2026-04-28 18:43 | 57.82508 | 8.81671 | 23740 ft | 424 kts | 121° |
| 2026-04-28 18:43 | 57.80679 | 8.85904 | 23197 ft | 422 kts | 122° |
| 2026-04-28 18:43 | 57.78847 | 8.90129 | 22643 ft | 412 kts | 122° |
| 2026-04-28 18:44 | 57.77054 | 8.94254 | 22093 ft | 403 kts | 122° |
| 2026-04-28 18:44 | 57.73577 | 9.02258 | 20992 ft | 390 kts | 122° |
| 2026-04-28 18:44 | 57.71875 | 9.06173 | 20440 ft | 386 kts | 122° |
| 2026-04-28 18:45 | 57.70189 | 9.10041 | 19892 ft | 382 kts | 123° |
| 2026-04-28 18:45 | 57.68515 | 9.13871 | 19330 ft | 379 kts | 123° |
| 2026-04-28 18:45 | 57.66836 | 9.17710 | 18794 ft | 383 kts | 123° |
| 2026-04-28 18:45 | 57.65151 | 9.21554 | 18297 ft | 381 kts | 124° |
| 2026-04-28 18:46 | 57.63473 | 9.25371 | 17800 ft | 380 kts | 124° |
| 2026-04-28 18:46 | 57.61801 | 9.29166 | 17294 ft | 377 kts | 124° |
| 2026-04-28 18:46 | 57.60137 | 9.32939 | 16808 ft | 375 kts | 124° |
| 2026-04-28 18:46 | 57.58489 | 9.36672 | 16386 ft | 370 kts | 124° |
| 2026-04-28 18:47 | 57.56861 | 9.40354 | 15960 ft | 366 kts | 124° |
| 2026-04-28 18:47 | 57.55251 | 9.43990 | 15530 ft | 361 kts | 125° |
| 2026-04-28 18:47 | 57.53660 | 9.47578 | 15107 ft | 357 kts | 125° |
| 2026-04-28 18:47 | 57.52086 | 9.51117 | 14681 ft | 353 kts | 126° |
| 2026-04-28 18:48 | 57.50374 | 9.54303 | 14267 ft | 351 kts | 133° |
| 2026-04-28 18:48 | 57.48589 | 9.57370 | 13827 ft | 347 kts | 133° |
| 2026-04-28 18:48 | 57.46825 | 9.60395 | 13406 ft | 343 kts | 133° |
| 2026-04-28 18:48 | 57.45085 | 9.63384 | 12979 ft | 338 kts | 133° |
| 2026-04-28 18:49 | 57.43371 | 9.66336 | 12553 ft | 334 kts | 133° |
| 2026-04-28 18:49 | 57.42224 | 9.68311 | 12264 ft | 331 kts | 133° |
| 2026-04-28 18:49 | 57.40007 | 9.72130 | 11704 ft | 326 kts | 134° |
| 2026-04-28 18:49 | 57.38361 | 9.74972 | 11280 ft | 322 kts | 134° |
| 2026-04-28 18:50 | 57.36741 | 9.77784 | 10851 ft | 313 kts | 134° |
| 2026-04-28 18:50 | 57.35178 | 9.80505 | 10427 ft | 304 kts | 134° |
| 2026-04-28 18:50 | 57.33659 | 9.83156 | 10012 ft | 297 kts | 134° |
| 2026-04-28 18:50 | 57.32163 | 9.85780 | 9580 ft | 295 kts | 134° |
| 2026-04-28 18:51 | 57.30685 | 9.88389 | 9156 ft | 292 kts | 134° |
| 2026-04-28 18:51 | 57.29223 | 9.90979 | 8738 ft | 290 kts | 134° |
| 2026-04-28 18:51 | 57.27778 | 9.93555 | 8312 ft | 287 kts | 134° |
| 2026-04-28 18:51 | 57.26346 | 9.96116 | 7894 ft | 285 kts | 134° |
| 2026-04-28 18:52 | 57.24923 | 9.98658 | 7502 ft | 284 kts | 134° |
| 2026-04-28 18:52 | 57.23513 | 10.01179 | 7464 ft | 280 kts | 134° |
| 2026-04-28 18:52 | 57.22120 | 10.03655 | 7453 ft | 276 kts | 133° |
| 2026-04-28 18:52 | 57.20736 | 10.06096 | 7453 ft | 275 kts | 134° |
| 2026-04-28 18:53 | 57.19348 | 10.08538 | 7458 ft | 276 kts | 134° |
| 2026-04-28 18:53 | 57.17833 | 10.10727 | 7454 ft | 280 kts | 152° |
| 2026-04-28 18:53 | 57.15943 | 10.11552 | 7450 ft | 282 kts | 180° |
| 2026-04-28 18:53 | 57.14051 | 10.10749 | 7464 ft | 280 kts | 207° |
| 2026-04-28 18:54 | 57.12215 | 10.09580 | 7462 ft | 281 kts | 189° |
| 2026-04-28 18:54 | 57.10242 | 10.09180 | 7149 ft | 287 kts | 185° |
| 2026-04-28 18:54 | 57.08269 | 10.08890 | 6840 ft | 280 kts | 185° |
| 2026-04-28 18:54 | 57.06339 | 10.08611 | 6534 ft | 279 kts | 185° |
| 2026-04-28 18:55 | 57.04410 | 10.08367 | 6203 ft | 277 kts | 180° |
| 2026-04-28 18:55 | 57.03159 | 10.08744 | 5980 ft | 274 kts | 160° |
| 2026-04-28 18:55 | 57.01172 | 10.11435 | 5547 ft | 265 kts | 121° |
| 2026-04-28 18:55 | 57.00527 | 10.14500 | 5231 ft | 255 kts | 95° |
| 2026-04-28 18:56 | 57.00364 | 10.17714 | 4918 ft | 252 kts | 90° |
| 2026-04-28 18:56 | 57.00262 | 10.20919 | 4598 ft | 250 kts | 90° |
| 2026-04-28 18:56 | 57.00169 | 10.24099 | 4288 ft | 249 kts | 90° |
| 2026-04-28 18:56 | 57.00081 | 10.27262 | 3988 ft | 248 kts | 90° |
| 2026-04-28 18:57 | 56.99996 | 10.30407 | 3695 ft | 246 kts | 90° |
| 2026-04-28 18:57 | 57.00186 | 10.33476 | 3368 ft | 241 kts | 66° |
| 2026-04-28 18:57 | 57.01149 | 10.35880 | 3052 ft | 230 kts | 36° |
| 2026-04-28 18:57 | 57.02551 | 10.36856 | 3026 ft | 215 kts | 4° |
| 2026-04-28 18:58 | 57.03975 | 10.36236 | 3048 ft | 214 kts | 331° |
| 2026-04-28 18:58 | 57.05011 | 10.34297 | 3059 ft | 214 kts | 308° |
| 2026-04-28 18:58 | 57.05834 | 10.31996 | 3033 ft | 214 kts | 305° |
| 2026-04-28 18:58 | 57.06625 | 10.29686 | 3034 ft | 213 kts | 304° |
| 2026-04-28 18:59 | 57.07410 | 10.27383 | 3038 ft | 212 kts | 304° |
| 2026-04-28 18:59 | 57.08196 | 10.25088 | 3026 ft | 211 kts | 304° |
| 2026-04-28 18:59 | 57.08974 | 10.22820 | 3034 ft | 213 kts | 304° |
| 2026-04-28 18:59 | 57.09758 | 10.20541 | 3050 ft | 210 kts | 304° |
| 2026-04-28 19:00 | 57.10549 | 10.18238 | 3063 ft | 211 kts | 304° |
| 2026-04-28 19:00 | 57.11210 | 10.15813 | 3068 ft | 217 kts | 288° |
| 2026-04-28 19:00 | 57.11277 | 10.13040 | 2873 ft | 224 kts | 267° |
| 2026-04-28 19:00 | 57.11094 | 10.10282 | 2428 ft | 207 kts | 263° |
| 2026-04-28 19:01 | 57.10923 | 10.07764 | 2172 ft | 195 kts | 263° |
| 2026-04-28 19:01 | 57.10769 | 10.05347 | 1917 ft | 187 kts | 262° |
| 2026-04-28 19:01 | 57.10620 | 10.03014 | 1680 ft | 179 kts | 265° |
| 2026-04-28 19:01 | 57.10482 | 10.00842 | 1441 ft | 163 kts | 265° |
| 2026-04-28 19:02 | 57.10357 | 9.98837 | 1255 ft | 154 kts | 265° |
| 2026-04-28 19:02 | 57.10236 | 9.96929 | 1032 ft | 147 kts | 264° |
| 2026-04-28 19:02 | 57.10120 | 9.95099 | 842 ft | 142 kts | 264° |
| 2026-04-28 19:02 | 57.10007 | 9.93314 | 660 ft | 139 kts | 264° |
| 2026-04-28 19:03 | 57.09895 | 9.91553 | 473 ft | 138 kts | 264° |
| 2026-04-28 19:03 | 57.09780 | 9.89813 | 276 ft | 136 kts | 264° |
| 2026-04-28 19:03 | 57.09679 | 9.88110 | 105 ft | 131 kts | 262° |
| 2026-04-28 19:03 | 57.09577 | 9.86604 | 20 ft | 96 kts | 263° |
| 2026-04-28 19:04 | 57.09527 | 9.85729 | 15 ft | 39 kts | 264° |
| 2026-04-28 19:04 | 57.09501 | 9.85287 | 15 ft | 22 kts | 262° |
| 2026-04-28 19:04 | 57.09483 | 9.85015 | 17 ft | 21 kts | 264° |
| 2026-04-28 19:04 | 57.09469 | 9.84745 | 18 ft | 21 kts | 264° |
| 2026-04-28 19:05 | 57.09457 | 9.84509 | 18 ft | 14 kts | 265° |
| 2026-04-28 19:05 | 57.09429 | 9.84340 | 20 ft | 15 kts | 223° |
| 2026-04-28 19:05 | 57.09350 | 9.84369 | 17 ft | 9 kts | 143° |
| 2026-04-28 19:05 | 57.09339 | 9.84384 | 16 ft | 0 kts | 143° |
| 2026-04-28 19:06 | 57.09333 | 9.84391 | 16 ft | 2 kts | 143° |
| 2026-04-28 19:06 | 57.09300 | 9.84438 | 16 ft | 11 kts | 142° |
| 2026-04-28 19:07 | 57.09259 | 9.84558 | 16 ft | 13 kts | 94° |
| 2026-04-28 19:07 | 57.09264 | 9.84728 | 16 ft | 14 kts | 83° |
| 2026-04-28 19:07 | 57.09278 | 9.84918 | 15 ft | 15 kts | 84° |
| 2026-04-28 19:07 | 57.09289 | 9.85112 | 17 ft | 15 kts | 84° |
| 2026-04-28 19:08 | 57.09302 | 9.85315 | 18 ft | 17 kts | 83° |
| 2026-04-28 19:08 | 57.09317 | 9.85535 | 18 ft | 17 kts | 82° |
| 2026-04-28 19:08 | 57.09329 | 9.85711 | 19 ft | 14 kts | 83° |
| 2026-04-28 19:08 | 57.09332 | 9.85879 | 16 ft | 13 kts | 108° |
| 2026-04-28 19:09 | 57.09266 | 9.86000 | 17 ft | 14 kts | 142° |
| 2026-04-28 19:09 | 57.09185 | 9.86113 | 18 ft | 15 kts | 142° |
| 2026-04-28 19:09 | 57.09098 | 9.86236 | 18 ft | 16 kts | 142° |
| 2026-04-28 19:09 | 57.09005 | 9.86366 | 17 ft | 17 kts | 142° |
| 2026-04-28 19:10 | 57.08907 | 9.86503 | 17 ft | 18 kts | 142° |
| 2026-04-28 19:10 | 57.08819 | 9.86629 | 17 ft | 15 kts | 142° |
| 2026-04-28 19:10 | 57.08760 | 9.86715 | 19 ft | 9 kts | 141° |
| 2026-04-28 19:10 | 57.08712 | 9.86787 | 19 ft | 8 kts | 141° |
| 2026-04-28 19:11 | 57.08707 | 9.86867 | 18 ft | 7 kts | 44° |
| 2026-04-28 19:11 | 57.08734 | 9.86920 | 18 ft | 5 kts | 49° |
| 2026-04-28 19:11 | 57.08739 | 9.86929 | 18 ft | 0 kts | 49° |